DW3560 Weather Reports


Display with metric or nautical units.
time (UTC)temp
F
wind
direction
speed
MPH
gust
MPH
rain 1hr
in
rain 24hr
in
rain mn
in
humidity
%
barometer
mb
20190624175950 68 335 3.0 5.0 0.00 0.00 0.00 69 1012.3
20190624174454 68 297 2.0 6.0 0.00 0.00 0.00 70 1012.3
20190624172950 68 246 2.0 5.0 0.00 0.00 0.00 70 1012.4
20190624171450 67 249 2.0 4.0 0.00 0.00 0.00 73 1012.3
20190624165949 66 232 1.0 5.0 0.00 0.00 0.00 74 1012.4
20190624164450 65 242 2.0 5.0 0.00 0.00 0.00 74 1012.3
20190624162950 64 241 2.0 4.0 0.00 0.00 0.00 76 1012.2
20190624161450 64 214 3.0 6.0 0.00 0.00 0.00 74 1012.0
20190624155950 65 214 2.0 6.0 0.00 0.00 0.00 74 1012.1
20190624154450 65 219 2.0 5.0 0.00 0.00 0.00 74 1012.0
20190624152950 63 201 3.0 8.0 0.00 0.00 0.00 75 1012.0
20190624151450 62 206 3.0 9.0 0.00 0.00 0.00 76 1012.0
20190624145950 62 177 4.0 8.0 0.00 0.00 0.00 76 1011.9
20190624144450 62 172 3.0 8.0 0.00 0.00 0.00 77 1011.8
20190624142950 61 169 3.0 7.0 0.00 0.00 0.00 81 1011.7
20190624141450 61 187 3.0 6.0 0.00 0.00 0.00 82 1011.7
20190624135950 60 176 3.0 6.0 0.00 0.00 0.00 82 1011.6
20190624134450 60 190 1.0 4.0 0.00 0.00 0.00 83 1011.7
20190624132950 60 190 2.0 4.0 0.00 0.00 0.00 82 1011.6
20190624131450 60 183 2.0 6.0 0.00 0.00 0.00 81 1011.4
20190624125950 60 175 3.0 6.0 0.00 0.00 0.00 81 1011.6
20190624124450 59 175 3.0 6.0 0.00 0.00 0.00 83 1011.5
20190624122950 59 175 3.0 6.0 0.00 0.00 0.00 86 1011.5
20190624121455 60 178 0.0 2.0 0.00 0.00 0.00 84 1011.6
20190624115950 60 188 2.0 7.0 0.00 0.00 0.00 84 1011.5
20190624114450 60 191 2.0 5.0 0.00 0.00 0.00 83 1011.4
20190624112950 61 184 3.0 8.0 0.00 0.00 0.00 83 1011.3
20190624111450 61 190 2.0 6.0 0.00 0.00 0.00 82 1011.3
20190624105950 61 173 3.0 9.0 0.00 0.00 0.00 81 1011.4
20190624104450 61 174 3.0 7.0 0.00 0.00 0.00 81 1011.6
20190624102950 60 172 3.0 6.0 0.00 0.00 0.00 80 1011.6
20190624101450 60 190 2.0 5.0 0.00 0.00 0.00 78 1011.8
20190624095950 60 187 2.0 7.0 0.00 0.00 0.00 77 1011.9
20190624094450 61 209 3.0 6.0 0.00 0.00 0.00 74 1011.8
20190624092950 62 167 1.0 4.0 0.00 0.00 0.00 69 1011.7
20190624091450 64 201 2.0 4.0 0.00 0.00 0.00 63 1011.9
20190624085950 65 184 3.0 7.0 0.00 0.00 0.00 63 1012.0
20190624084450 64 160 4.0 9.0 0.00 0.00 0.00 62 1012.0
20190624082951 64 161 3.0 7.0 0.00 0.00 0.00 58 1012.2
20190624081450 64 190 2.0 5.0 0.00 0.00 0.00 56 1012.4
20190624075951 64 192 2.0 4.0 0.00 0.00 0.00 55 1012.5
20190624074450 65 242 0.0 3.0 0.00 0.00 0.00 57 1012.5
20190624072950 65 242 0.0 1.0 0.00 0.00 0.00 58 1012.8
20190624071451 65 242 0.0 1.0 0.00 0.00 0.00 58 1012.8
20190624064450 67 0 0.0 0.0 0.00 0.00 0.00 56 1013.1
20190624062951 69 242 0.0 3.0 0.00 0.00 0.00 48 1013.2
20190624061453 69 242 1.0 3.0 0.00 0.00 0.00 46 1013.2
20190624055950 69 242 1.0 3.0 0.00 0.00 0.00 47 1013.4
20190624054451 68 243 0.0 3.0 0.00 0.00 0.00 47 1013.4
20190624052950 68 0 0.0 0.0 0.00 0.00 0.00 48 1013.5
20190624051451 68 0 0.0 0.0 0.00 0.00 0.00 49 1013.6
20190624045951 68 335 1.0 3.0 0.00 0.00 0.00 49 1013.7
20190624044451 68 344 1.0 5.0 0.00 0.00 0.00 50 1013.7
20190624042950 68 5 0.0 3.0 0.00 0.00 0.00 51 1013.8
20190624041450 69 6 2.0 3.0 0.00 0.00 0.00 49 1013.6
20190624035951 69 353 2.0 4.0 0.00 0.00 0.00 49 1013.5
20190624034450 69 11 2.0 4.0 0.00 0.00 0.00 49 1013.4
20190624032950 70 11 2.0 4.0 0.00 0.00 0.00 51 1013.5
20190624031450 71 345 3.0 4.0 0.00 0.00 0.00 50 1013.5
20190624024451 73 333 3.0 6.0 0.00 0.00 0.00 46 1013.6
20190624022951 74 326 4.0 8.0 0.00 0.00 0.00 44 1013.7
20190624021450 75 328 4.0 10.0 0.00 0.00 0.00 42 1013.6
20190624015955 77 326 4.0 11.0 0.00 0.00 0.00 40 1013.5
20190624014450 78 318 4.0 8.0 0.00 0.00 0.00 40 1013.6
20190624012951 79 323 4.0 10.0 0.00 0.00 0.00 38 1013.4
20190624011450 80 319 4.0 9.0 0.00 0.00 0.00 37 1013.4
20190624005950 82 317 3.0 6.0 0.00 0.00 0.00 33 1013.5
20190624004451 82 317 4.0 9.0 0.00 0.00 0.00 37 1013.5
20190624002950 82 315 4.0 9.0 0.00 0.00 0.00 37 1013.6
20190624001451 82 321 4.0 9.0 0.00 0.00 0.00 38 1013.7
20190623235950 82 319 4.0 10.0 0.00 0.00 0.00 37 1013.9
20190623234451 82 324 5.0 9.0 0.00 0.00 0.00 37 1013.9
20190623232951 83 313 3.0 10.0 0.00 0.00 0.00 36 1014.1
20190623231450 82 323 4.0 9.0 0.00 0.00 0.00 38 1014.2
20190623225951 82 323 5.0 10.0 0.00 0.00 0.00 39 1014.2
20190623224451 83 310 4.0 10.0 0.00 0.00 0.00 38 1014.3
20190623222951 83 316 5.0 13.0 0.00 0.00 0.00 37 1014.3
20190623221451 82 324 6.0 14.0 0.00 0.00 0.00 35 1014.5
20190623215951 84 313 4.0 11.0 0.00 0.00 0.00 37 1014.6
20190623214452 83 320 6.0 11.0 0.00 0.00 0.00 38 1014.6
20190623212950 84 312 5.0 11.0 0.00 0.00 0.00 37 1014.8
20190623211450 84 327 5.0 10.0 0.00 0.00 0.00 38 1014.8
20190623205950 84 318 4.0 9.0 0.00 0.00 0.00 38 1014.8
20190623204450 83 328 5.0 10.0 0.00 0.00 0.00 41 1014.7
20190623202951 82 327 5.0 9.0 0.00 0.00 0.00 45 1014.7
20190623201451 82 314 3.0 8.0 0.00 0.00 0.00 39 1014.9
20190623195951 82 309 3.0 8.0 0.00 0.00 0.00 37 1015.1
20190623194451 81 321 3.0 8.0 0.00 0.00 0.00 37 1015.0
20190623192951 81 316 3.0 9.0 0.00 0.00 0.00 40 1015.2
20190623191451 80 335 5.0 12.0 0.00 0.00 0.00 44 1015.1
20190623185951 81 320 2.0 8.0 0.00 0.00 0.00 46 1015.2
20190623184451 79 318 2.0 5.0 0.00 0.00 0.00 45 1015.2
20190623182951 79 255 2.0 5.0 0.00 0.00 0.00 46 1015.2
20190623181451 78 258 2.0 6.0 0.00 0.00 0.00 44 1015.1